createdAt,value
2023-01-01T00:00:38.833Z,3.30
2023-01-01T00:01:43.556Z,2.72
2023-01-01T00:02:45.379Z,2.85
2023-01-01T00:03:55.034Z,3.60
2023-01-01T00:04:56.773Z,3.20
2023-01-01T00:05:58.509Z,2.88
2023-01-01T00:07:00.934Z,3.03
2023-01-01T00:08:05.217Z,2.90
2023-01-01T00:09:25.761Z,3.00
2023-01-01T00:10:28.683Z,2.45
2023-01-01T00:11:30.447Z,2.78
2023-01-01T00:12:33.456Z,2.67
2023-01-01T00:13:36.672Z,2.33
2023-01-01T00:14:39.409Z,2.47
2023-01-01T00:15:41.406Z,2.50
2023-01-01T00:16:43.200Z,2.25
2023-01-01T00:17:44.998Z,2.70
2023-01-01T00:18:46.761Z,2.05
2023-01-01T00:19:48.515Z,2.60
2023-01-01T00:20:50.272Z,2.83
2023-01-01T00:21:51.999Z,2.88
2023-01-01T00:22:56.064Z,2.53
2023-01-01T00:23:58.481Z,2.28
2023-01-01T00:25:00.232Z,2.72
2023-01-01T00:26:08.746Z,2.45
2023-01-01T00:27:10.580Z,2.80
2023-01-01T00:28:12.308Z,3.00
2023-01-01T00:29:14.076Z,2.60
2023-01-01T00:30:15.952Z,2.50
2023-01-01T00:31:20.830Z,2.83
2023-01-01T00:32:23.297Z,2.50
2023-01-01T00:33:25.147Z,2.40
2023-01-01T00:34:26.905Z,2.60
2023-01-01T00:35:28.621Z,2.20
2023-01-01T00:36:30.930Z,2.53
2023-01-01T00:37:32.777Z,2.20
2023-01-01T00:38:34.954Z,2.42
2023-01-01T00:39:36.683Z,2.42
2023-01-01T00:40:38.445Z,2.50
2023-01-01T00:41:40.201Z,1.92
2023-01-01T00:42:41.968Z,2.08
2023-01-01T00:43:44.163Z,2.50
2023-01-01T00:44:46.125Z,2.10
2023-01-01T00:45:52.890Z,2.08
2023-01-01T00:46:54.767Z,2.42
2023-01-01T00:47:56.505Z,1.92
2023-01-01T00:48:58.269Z,1.90
2023-01-01T00:49:59.976Z,2.20
2023-01-01T00:51:01.955Z,2.10
2023-01-01T00:52:03.818Z,1.88
2023-01-01T00:53:05.553Z,1.83
2023-01-01T00:54:07.484Z,2.10
2023-01-01T00:55:09.861Z,2.10
2023-01-01T00:56:11.615Z,1.50
2023-01-01T00:57:13.442Z,2.00
2023-01-01T00:58:16.209Z,1.83
2023-01-01T00:59:18.043Z,2.13
2023-01-01T01:00:20.405Z,1.80
2023-01-01T01:01:22.287Z,2.20
2023-01-01T01:02:24.235Z,2.05
2023-01-01T01:03:28.959Z,2.00
2023-01-01T01:04:30.860Z,1.88
2023-01-01T01:05:33.632Z,1.70
2023-01-01T01:06:35.574Z,2.00
2023-01-01T01:07:38.656Z,1.88
2023-01-01T01:08:43.139Z,1.77
2023-01-01T01:09:44.885Z,1.70
2023-01-01T01:10:46.614Z,1.80
2023-01-01T01:11:48.497Z,1.90
2023-01-01T01:12:50.309Z,1.92
2023-01-01T01:13:55.155Z,1.90
2023-01-01T01:14:56.895Z,1.77
2023-01-01T01:15:58.823Z,1.45
2023-01-01T01:17:00.710Z,1.73
2023-01-01T01:18:02.611Z,1.70
2023-01-01T01:19:06.362Z,1.58
2023-01-01T01:20:08.997Z,1.85
2023-01-01T01:21:14.401Z,1.90
2023-01-01T01:22:16.454Z,2.90
2023-01-01T01:23:18.926Z,1.90
2023-01-01T01:24:20.693Z,2.22
2023-01-01T01:25:22.424Z,2.10
2023-01-01T01:26:26.976Z,2.35
2023-01-01T01:27:28.728Z,2.10
2023-01-01T01:28:31.062Z,2.35
2023-01-01T01:29:32.802Z,2.40
2023-01-01T01:30:34.674Z,2.38
2023-01-01T01:31:36.614Z,2.20
2023-01-01T01:32:38.404Z,2.10
2023-01-01T01:33:40.470Z,2.20
2023-01-01T01:34:42.261Z,2.45
2023-01-01T01:35:52.025Z,2.47
2023-01-01T01:36:53.815Z,2.28
2023-01-01T01:37:55.859Z,2.85
2023-01-01T01:38:58.032Z,2.00
2023-01-01T01:39:59.808Z,2.40
2023-01-01T01:41:01.737Z,2.60
2023-01-01T01:42:03.858Z,2.20
2023-01-01T01:43:11.673Z,2.50
2023-01-01T01:44:44.193Z,2.13
2023-01-01T01:45:46.014Z,2.10
2023-01-01T01:46:47.821Z,2.63
2023-01-01T01:47:58.085Z,1.83
2023-01-01T01:49:05.164Z,1.60
2023-01-01T01:50:31.557Z,1.50
2023-01-01T01:51:39.133Z,2.28
2023-01-01T01:53:05.787Z,1.60
2023-01-01T01:54:12.648Z,1.58
2023-01-01T01:55:14.524Z,1.37
2023-01-01T01:56:28.818Z,2.10
2023-01-01T01:57:31.333Z,1.33
2023-01-01T01:58:33.962Z,1.58
2023-01-01T01:59:41.215Z,2.15
2023-01-01T02:00:43.693Z,1.73
2023-01-01T02:01:45.703Z,1.42
2023-01-01T02:03:07.237Z,1.30
2023-01-01T02:04:09.172Z,2.05
2023-01-01T02:05:11.596Z,1.40
2023-01-01T02:06:13.623Z,2.00
2023-01-01T02:07:15.863Z,1.38
2023-01-01T02:08:17.732Z,1.30
2023-01-01T02:09:19.892Z,1.58
2023-01-01T02:10:22.201Z,1.02
2023-01-01T02:11:25.509Z,1.33
2023-01-01T02:12:27.933Z,1.33
2023-01-01T02:13:29.964Z,1.20
2023-01-01T02:14:33.299Z,1.30
2023-01-01T02:16:06.548Z,1.30
2023-01-01T02:17:14.481Z,1.60
2023-01-01T02:18:23.594Z,1.10
2023-01-01T02:19:44.935Z,1.08
2023-01-01T02:20:59.519Z,1.00
2023-01-01T02:22:36.229Z,1.48
2023-01-01T02:23:55.239Z,1.00
2023-01-01T02:25:12.092Z,0.93
2023-01-01T02:26:20.960Z,1.00
2023-01-01T02:27:45.448Z,1.17
2023-01-01T02:29:02.063Z,1.10
2023-01-01T02:30:07.337Z,0.83
2023-01-01T02:31:15.880Z,1.00
2023-01-01T02:32:25.936Z,1.10
2023-01-01T02:33:28.990Z,1.10
2023-01-01T02:34:46.484Z,1.02
2023-01-01T02:35:58.158Z,0.90
2023-01-01T02:37:02.770Z,1.05
2023-01-01T02:38:30.259Z,1.13
2023-01-01T02:39:34.752Z,1.35
2023-01-01T02:40:45.285Z,1.20
2023-01-01T02:41:52.417Z,1.10
2023-01-01T02:42:56.389Z,1.17
2023-01-01T02:45:00.251Z,1.30
2023-01-01T02:46:06.859Z,1.00
2023-01-01T02:47:11.436Z,0.95
2023-01-01T02:48:47.037Z,1.30
2023-01-01T02:50:04.591Z,1.00
2023-01-01T02:51:27.285Z,1.35
2023-01-01T02:52:41.079Z,0.85
2023-01-01T02:54:01.486Z,1.10
2023-01-01T02:55:15.136Z,1.20
2023-01-01T02:56:46.096Z,0.90
2023-01-01T02:57:57.051Z,1.00
2023-01-01T02:59:49.437Z,1.15
2023-01-01T03:00:54.333Z,0.90
2023-01-01T03:01:59.160Z,0.98
2023-01-01T03:03:13.213Z,0.70
2023-01-01T03:04:31.684Z,0.90
2023-01-01T03:06:26.981Z,1.00
2023-01-01T03:07:49.877Z,1.05
2023-01-01T03:09:11.479Z,0.95
2023-01-01T03:10:51.247Z,0.90
2023-01-01T03:12:06.426Z,0.80
2023-01-01T03:13:17.097Z,1.00
2023-01-01T03:14:41.032Z,1.05
2023-01-01T03:16:21.213Z,0.80
2023-01-01T03:18:00.387Z,1.03
2023-01-01T03:19:23.124Z,0.88
2023-01-01T03:20:28.569Z,0.70
2023-01-01T03:21:30.656Z,0.85
2023-01-01T03:23:47.899Z,0.85
2023-01-01T03:24:59.277Z,0.75
2023-01-01T03:26:06.546Z,0.90
2023-01-01T03:27:30.707Z,0.80
2023-01-01T03:28:36.857Z,0.95
2023-01-01T03:29:42.357Z,0.60
2023-01-01T03:30:47.006Z,0.63
2023-01-01T03:31:50.641Z,1.00
2023-01-01T03:33:08.283Z,0.70
2023-01-01T03:34:16.951Z,1.10
2023-01-01T03:35:21.350Z,1.00
2023-01-01T03:36:28.516Z,0.82
2023-01-01T03:37:31.791Z,1.10
2023-01-01T03:38:41.929Z,0.93
2023-01-01T03:39:48.463Z,0.80
2023-01-01T03:40:54.107Z,0.90
2023-01-01T03:42:19.137Z,0.90
2023-01-01T03:44:10.497Z,0.80
2023-01-01T03:45:29.516Z,1.20
2023-01-01T03:46:35.004Z,0.68
2023-01-01T03:47:37.453Z,1.02
2023-01-01T03:49:03.298Z,1.00
2023-01-01T03:50:06.678Z,0.90
2023-01-01T03:51:56.485Z,0.70
2023-01-01T03:53:17.902Z,0.80
2023-01-01T03:54:31.113Z,0.70
2023-01-01T03:55:43.488Z,1.10
2023-01-01T03:56:52.420Z,0.60
2023-01-01T03:58:09.399Z,0.80
2023-01-01T03:59:37.047Z,0.90
2023-01-01T04:00:46.748Z,0.70
2023-01-01T04:01:52.617Z,0.85
2023-01-01T04:03:03.140Z,1.00
2023-01-01T04:04:06.378Z,1.08
2023-01-01T04:05:12.353Z,0.70
2023-01-01T04:06:14.462Z,1.00
2023-01-01T04:07:16.381Z,0.93
2023-01-01T04:08:18.436Z,0.70
2023-01-01T04:09:25.675Z,0.73
2023-01-01T04:10:30.748Z,0.65
2023-01-01T04:11:52.531Z,0.82
2023-01-01T04:12:57.718Z,0.70
2023-01-01T04:13:59.468Z,0.88
2023-01-01T04:15:01.243Z,0.93
2023-01-01T04:16:03.596Z,0.80
2023-01-01T04:17:07.138Z,0.70
2023-01-01T04:18:09.233Z,0.70
2023-01-01T04:19:10.969Z,0.77
2023-01-01T04:20:13.537Z,0.80
2023-01-01T04:21:15.292Z,0.70
2023-01-01T04:22:18.036Z,1.00
2023-01-01T04:23:19.752Z,0.90
2023-01-01T04:24:23.062Z,0.88
2023-01-01T04:25:25.697Z,1.00
2023-01-01T04:26:27.424Z,0.70
2023-01-01T04:27:29.325Z,0.80
2023-01-01T04:28:31.057Z,0.80
2023-01-01T04:29:33.536Z,1.00
2023-01-01T04:31:38.493Z,0.75
2023-01-01T04:32:40.911Z,0.82
2023-01-01T04:33:42.708Z,0.80
2023-01-01T04:34:44.441Z,1.40
2023-01-01T04:35:46.192Z,0.93
2023-01-01T04:36:47.970Z,0.80
2023-01-01T04:37:49.783Z,0.90
2023-01-01T04:38:51.597Z,0.80
2023-01-01T04:39:53.521Z,0.90
2023-01-01T04:41:02.933Z,0.90
2023-01-01T04:42:04.780Z,0.80
2023-01-01T04:43:06.529Z,0.95
2023-01-01T04:44:08.343Z,1.20
2023-01-01T04:45:12.419Z,1.02
2023-01-01T04:46:14.253Z,0.93
2023-01-01T04:47:16.118Z,0.90
2023-01-01T04:48:17.860Z,0.83
2023-01-01T04:49:19.649Z,1.00
2023-01-01T04:50:21.353Z,0.80
2023-01-01T04:51:23.139Z,0.70
2023-01-01T04:52:24.952Z,0.70
2023-01-01T04:53:30.107Z,0.80
2023-01-01T04:54:32.260Z,0.80
2023-01-01T04:55:34.286Z,1.02
2023-01-01T04:56:36.106Z,1.15
2023-01-01T04:57:37.935Z,0.93
2023-01-01T04:58:41.212Z,0.90
2023-01-01T04:59:42.963Z,1.10
2023-01-01T05:00:49.298Z,1.13
2023-01-01T05:01:51.115Z,1.20
2023-01-01T05:02:53.073Z,1.10
2023-01-01T05:03:55.651Z,1.27
2023-01-01T05:04:57.397Z,0.80
2023-01-01T05:06:09.471Z,0.70
2023-01-01T05:07:11.257Z,0.90
2023-01-01T05:08:12.985Z,1.20
2023-01-01T05:09:14.738Z,1.13
2023-01-01T05:10:16.558Z,0.80
2023-01-01T05:11:23.877Z,0.93
2023-01-01T05:12:25.617Z,0.88
2023-01-01T05:13:27.481Z,0.90
2023-01-01T05:14:29.239Z,1.02
2023-01-01T05:15:30.972Z,1.10
2023-01-01T05:16:38.236Z,0.70
2023-01-01T05:17:40.071Z,1.17
2023-01-01T05:18:42.637Z,0.90
2023-01-01T05:19:44.405Z,1.03
2023-01-01T05:20:46.145Z,1.00
2023-01-01T05:21:47.901Z,0.98
2023-01-01T05:22:49.598Z,1.02
2023-01-01T05:23:56.237Z,0.88
2023-01-01T05:24:58.526Z,0.98
2023-01-01T05:26:00.378Z,0.80
2023-01-01T05:27:02.125Z,1.10
2023-01-01T05:28:03.973Z,1.08
2023-01-01T05:29:11.886Z,0.95
2023-01-01T05:30:15.481Z,0.80
2023-01-01T05:31:19.047Z,0.80
2023-01-01T05:32:20.841Z,1.30
2023-01-01T05:33:22.659Z,0.70
2023-01-01T05:34:25.515Z,0.80
2023-01-01T05:35:27.288Z,0.90
2023-01-01T05:36:31.799Z,1.27
2023-01-01T05:37:33.539Z,1.25
2023-01-01T05:38:35.802Z,1.10
2023-01-01T05:39:37.543Z,1.10
2023-01-01T05:40:40.083Z,0.80
2023-01-01T05:41:42.080Z,0.93
2023-01-01T05:42:43.894Z,1.08
2023-01-01T05:43:46.104Z,1.30
2023-01-01T05:44:47.848Z,0.90
2023-01-01T05:45:49.878Z,0.85
2023-01-01T05:46:51.829Z,1.10
2023-01-01T05:47:53.618Z,0.70
2023-01-01T05:48:56.084Z,0.93
2023-01-01T05:49:57.866Z,1.00
2023-01-01T05:51:04.756Z,0.90
2023-01-01T05:52:06.493Z,1.00
2023-01-01T05:53:08.197Z,0.98
2023-01-01T05:55:11.087Z,1.00
2023-01-01T05:56:14.219Z,1.02
2023-01-01T05:57:15.976Z,0.90
2023-01-01T05:58:17.697Z,0.93
2023-01-01T05:59:19.438Z,0.88
2023-01-01T06:00:21.292Z,0.93
2023-01-01T06:01:28.525Z,0.63
2023-01-01T06:02:31.493Z,0.90
2023-01-01T06:03:33.260Z,1.10
2023-01-01T06:04:35.104Z,0.80
2023-01-01T06:05:36.887Z,1.00
2023-01-01T06:06:38.662Z,1.20
2023-01-01T06:07:46.401Z,0.85
2023-01-01T06:08:51.981Z,0.80
2023-01-01T06:09:53.703Z,1.40
2023-01-01T06:11:03.315Z,1.20
2023-01-01T06:12:05.467Z,1.20
2023-01-01T06:13:12.966Z,0.95
2023-01-01T06:14:15.256Z,0.80
2023-01-01T06:15:17.094Z,0.82
2023-01-01T06:16:18.972Z,1.45
2023-01-01T06:17:20.721Z,1.00
2023-01-01T06:18:23.441Z,0.75
2023-01-01T06:19:25.178Z,0.88
2023-01-01T06:20:26.929Z,1.00
2023-01-01T06:21:29.840Z,1.10
2023-01-01T06:22:31.551Z,0.90
2023-01-01T06:23:33.589Z,0.77
2023-01-01T06:24:39.006Z,1.13
2023-01-01T06:25:41.137Z,1.20
2023-01-01T06:26:42.859Z,1.05
2023-01-01T06:27:44.580Z,0.77
2023-01-01T06:28:47.532Z,1.02
2023-01-01T06:29:49.252Z,0.80
2023-01-01T06:30:51.082Z,1.10
2023-01-01T06:31:52.936Z,0.98
2023-01-01T06:32:54.648Z,1.03
2023-01-01T06:33:57.308Z,1.02
2023-01-01T06:34:59.041Z,1.02
2023-01-01T06:36:03.576Z,1.00
2023-01-01T06:37:07.136Z,1.10
2023-01-01T06:38:09.082Z,1.00
2023-01-01T06:39:10.859Z,1.10
2023-01-01T06:40:12.724Z,0.82
2023-01-01T06:41:17.206Z,1.00
2023-01-01T06:42:18.998Z,1.10
2023-01-01T06:43:20.747Z,1.10
2023-01-01T06:44:22.505Z,1.27
2023-01-01T06:45:24.259Z,1.17
2023-01-01T06:46:34.005Z,0.95
2023-01-01T06:47:36.442Z,1.20
2023-01-01T06:48:38.213Z,1.10
2023-01-01T06:49:39.940Z,1.02
2023-01-01T06:50:41.670Z,1.23
2023-01-01T06:51:44.164Z,1.13
2023-01-01T06:52:47.645Z,1.20
2023-01-01T06:53:50.104Z,0.83
2023-01-01T06:54:51.909Z,1.17
2023-01-01T06:55:57.283Z,1.15
2023-01-01T06:56:59.344Z,1.13
2023-01-01T06:58:01.096Z,1.08
2023-01-01T06:59:02.944Z,1.10
2023-01-01T07:00:05.449Z,1.50
2023-01-01T07:01:15.599Z,1.13
2023-01-01T07:02:17.969Z,1.50
2023-01-01T07:03:20.073Z,1.35
2023-01-01T07:04:21.859Z,1.43
2023-01-01T07:05:23.590Z,1.15
2023-01-01T07:06:26.802Z,1.67
2023-01-01T07:07:34.064Z,1.35
2023-01-01T07:08:38.063Z,2.28
2023-01-01T07:09:39.881Z,1.50
2023-01-01T07:10:41.613Z,1.15
2023-01-01T07:11:43.381Z,1.50
2023-01-01T07:12:45.103Z,1.50
2023-01-01T07:13:46.930Z,1.38
2023-01-01T07:14:48.673Z,1.37
2023-01-01T07:15:50.505Z,1.23
2023-01-01T07:16:52.313Z,1.50
2023-01-01T07:17:54.051Z,1.50
2023-01-01T07:18:57.401Z,1.40
2023-01-01T07:19:59.130Z,1.30
2023-01-01T07:21:03.414Z,1.73
2023-01-01T07:22:05.154Z,1.60
2023-01-01T07:23:06.951Z,1.80
2023-01-01T07:24:11.983Z,1.58
2023-01-01T07:25:16.144Z,1.53
2023-01-01T07:26:17.890Z,1.52
2023-01-01T07:27:19.599Z,1.40
2023-01-01T07:28:22.586Z,1.60
2023-01-01T07:29:24.307Z,1.58
2023-01-01T07:30:26.060Z,1.60
2023-01-01T07:31:27.916Z,1.50
2023-01-01T07:32:29.686Z,1.40
2023-01-01T07:33:31.419Z,1.83
2023-01-01T07:34:33.136Z,1.77
2023-01-01T07:35:34.882Z,1.30
2023-01-01T07:36:36.731Z,1.65
2023-01-01T07:37:38.695Z,1.75
2023-01-01T07:38:40.689Z,1.58
2023-01-01T07:39:42.424Z,2.05
2023-01-01T07:40:44.285Z,1.58
2023-01-01T07:41:46.048Z,1.40
2023-01-01T07:42:47.788Z,1.83
2023-01-01T07:43:49.533Z,1.73
2023-01-01T07:44:51.341Z,1.80
2023-01-01T07:45:53.166Z,1.27
2023-01-01T07:47:05.680Z,1.80
2023-01-01T07:48:13.619Z,1.38
2023-01-01T07:49:15.358Z,1.25
2023-01-01T07:50:17.980Z,1.58
2023-01-01T07:51:19.827Z,1.90
2023-01-01T07:52:21.697Z,1.50
2023-01-01T07:53:23.646Z,1.92
2023-01-01T07:54:25.372Z,1.50
2023-01-01T07:55:27.375Z,1.70
2023-01-01T07:56:29.124Z,1.50
2023-01-01T07:57:30.870Z,1.65
2023-01-01T07:58:32.627Z,1.73
2023-01-01T07:59:34.403Z,1.50
2023-01-01T08:00:36.124Z,1.48
2023-01-01T08:01:38.311Z,1.90
2023-01-01T08:02:40.981Z,1.90
2023-01-01T08:03:42.914Z,1.60
2023-01-01T08:04:44.722Z,1.70
2023-01-01T08:05:46.567Z,1.50
2023-01-01T08:06:48.304Z,2.00
2023-01-01T08:07:51.196Z,1.73
2023-01-01T08:08:53.021Z,1.98
2023-01-01T08:09:54.774Z,1.67
2023-01-01T08:11:03.751Z,1.73
2023-01-01T08:12:06.226Z,1.60
2023-01-01T08:13:09.075Z,1.52
2023-01-01T08:14:11.334Z,1.40
2023-01-01T08:15:13.804Z,1.48
2023-01-01T08:16:15.560Z,1.38
2023-01-01T08:17:17.375Z,1.63
2023-01-01T08:18:19.101Z,1.58
2023-01-01T08:19:20.815Z,1.55
2023-01-01T08:20:22.584Z,1.55
2023-01-01T08:21:24.306Z,1.48
2023-01-01T08:22:26.158Z,1.42
2023-01-01T08:23:28.636Z,1.45
2023-01-01T08:24:30.378Z,1.38
2023-01-01T08:25:32.117Z,1.75
2023-01-01T08:26:35.604Z,1.50
2023-01-01T08:27:38.198Z,1.80
2023-01-01T08:28:39.974Z,1.45
2023-01-01T08:29:42.579Z,1.50
2023-01-01T08:30:44.351Z,1.50
2023-01-01T08:31:46.368Z,1.45
2023-01-01T08:32:48.315Z,1.67
2023-01-01T08:33:50.078Z,1.73
2023-01-01T08:34:51.801Z,1.60
2023-01-01T08:35:54.622Z,1.50
2023-01-01T08:36:56.711Z,1.33
2023-01-01T08:37:58.500Z,1.60
2023-01-01T08:39:00.291Z,1.48
2023-01-01T08:40:02.048Z,1.38
2023-01-01T08:41:03.852Z,1.30
2023-01-01T08:42:11.829Z,1.30
2023-01-01T08:43:14.060Z,1.50
2023-01-01T08:44:15.807Z,1.30
2023-01-01T08:45:17.548Z,1.65
2023-01-01T08:46:19.364Z,1.42
2023-01-01T08:47:23.850Z,1.40
2023-01-01T08:48:30.585Z,1.30
2023-01-01T08:49:32.826Z,1.60
2023-01-01T08:50:34.658Z,1.23
2023-01-01T08:51:36.441Z,1.30
2023-01-01T08:52:38.273Z,1.15
2023-01-01T08:53:42.988Z,1.17
2023-01-01T08:54:47.283Z,1.30
2023-01-01T08:55:58.952Z,1.50
2023-01-01T08:57:00.675Z,1.30
2023-01-01T08:58:06.525Z,1.10
2023-01-01T08:59:08.272Z,1.27
2023-01-01T09:00:10.767Z,1.20
2023-01-01T09:01:12.630Z,1.55
2023-01-01T09:02:14.435Z,1.60
2023-01-01T09:03:16.580Z,1.25
2023-01-01T09:04:18.505Z,1.30
2023-01-01T09:05:20.393Z,1.20
2023-01-01T09:06:22.183Z,1.50
2023-01-01T09:07:23.943Z,1.35
2023-01-01T09:08:25.938Z,1.20
2023-01-01T09:09:31.621Z,1.70
2023-01-01T09:10:33.661Z,1.20
2023-01-01T09:11:36.225Z,1.42
2023-01-01T09:12:37.992Z,1.02
2023-01-01T09:13:39.739Z,1.20
2023-01-01T09:14:41.499Z,1.48
2023-01-01T09:15:43.566Z,1.30
2023-01-01T09:16:45.361Z,1.20
2023-01-01T09:17:47.202Z,1.30
2023-01-01T09:18:49.313Z,1.00
2023-01-01T09:19:51.170Z,1.57
2023-01-01T09:20:52.913Z,1.10
2023-01-01T09:21:54.687Z,1.85
2023-01-01T09:22:59.717Z,0.90
2023-01-01T09:24:06.169Z,1.23
2023-01-01T09:25:08.261Z,1.20
2023-01-01T09:26:10.803Z,0.80
2023-01-01T09:27:12.564Z,1.20
2023-01-01T09:28:15.019Z,1.20
2023-01-01T09:29:18.723Z,1.23
2023-01-01T09:30:20.610Z,1.20
2023-01-01T09:31:22.440Z,1.35
2023-01-01T09:32:24.254Z,1.38
2023-01-01T09:33:25.979Z,1.10
2023-01-01T09:34:27.806Z,1.13
2023-01-01T09:35:30.720Z,1.10
2023-01-01T09:36:33.643Z,1.17
2023-01-01T09:37:35.367Z,1.20
2023-01-01T09:38:37.087Z,0.85
2023-01-01T09:39:38.857Z,1.20
2023-01-01T09:41:01.755Z,1.03
2023-01-01T09:42:17.435Z,1.20
2023-01-01T09:43:21.996Z,1.20
2023-01-01T09:44:33.010Z,1.02
2023-01-01T09:45:48.226Z,1.08
2023-01-01T09:46:51.285Z,1.15
2023-01-01T09:47:57.961Z,1.25
2023-01-01T09:49:14.917Z,1.20
2023-01-01T09:50:23.695Z,1.30
2023-01-01T09:51:28.573Z,1.13
2023-01-01T09:52:39.224Z,1.00
2023-01-01T09:54:06.592Z,1.30
2023-01-01T09:55:48.986Z,1.25
2023-01-01T09:56:55.770Z,1.17
2023-01-01T09:57:57.897Z,1.20
2023-01-01T09:58:59.809Z,1.20
2023-01-01T10:00:01.725Z,1.02
2023-01-01T10:01:33.021Z,1.00
2023-01-01T10:03:03.268Z,1.00
2023-01-01T10:04:23.581Z,1.00
2023-01-01T10:05:37.870Z,0.90
2023-01-01T10:06:51.609Z,1.08
2023-01-01T10:08:08.205Z,1.00
2023-01-01T10:09:52.574Z,1.20
2023-01-01T10:11:06.322Z,0.90
2023-01-01T10:12:13.254Z,0.90
2023-01-01T10:13:32.466Z,1.10
2023-01-01T10:14:39.046Z,1.00
2023-01-01T10:15:55.360Z,0.75
2023-01-01T10:16:59.252Z,1.33
2023-01-01T10:18:04.810Z,1.20
2023-01-01T10:19:24.524Z,1.10
2023-01-01T10:20:48.020Z,1.00
2023-01-01T10:21:53.025Z,0.90
2023-01-01T10:23:08.800Z,1.33
2023-01-01T10:24:31.718Z,1.13
2023-01-01T10:25:35.311Z,0.90
2023-01-01T10:26:39.273Z,1.00
2023-01-01T10:27:59.845Z,1.15
2023-01-01T10:29:35.862Z,1.10
2023-01-01T10:30:37.585Z,1.27
2023-01-01T10:31:45.203Z,1.20
2023-01-01T10:32:53.216Z,1.33
2023-01-01T10:33:55.038Z,1.25
2023-01-01T10:34:58.033Z,1.00
2023-01-01T10:36:00.037Z,1.10
2023-01-01T10:37:03.254Z,1.40
2023-01-01T10:38:05.769Z,1.73
2023-01-01T10:39:09.227Z,1.20
2023-01-01T10:40:23.678Z,1.20
2023-01-01T10:41:25.628Z,1.00
2023-01-01T10:42:27.383Z,0.90
2023-01-01T10:43:29.094Z,1.00
2023-01-01T10:44:35.153Z,1.20
2023-01-01T10:45:43.207Z,1.10
2023-01-01T10:46:49.225Z,1.13
2023-01-01T10:48:14.895Z,1.10
2023-01-01T10:49:16.929Z,1.00
2023-01-01T10:50:18.799Z,0.90
2023-01-01T10:51:24.805Z,1.20
2023-01-01T10:52:40.590Z,1.07
2023-01-01T10:53:49.638Z,1.35
2023-01-01T10:54:51.495Z,1.30
2023-01-01T10:56:07.187Z,1.60
2023-01-01T10:57:38.006Z,1.10
2023-01-01T10:58:50.892Z,1.35
2023-01-01T10:59:54.568Z,1.40
2023-01-01T11:01:01.589Z,1.77
2023-01-01T11:02:20.907Z,1.33
2023-01-01T11:03:22.899Z,1.20
2023-01-01T11:04:24.710Z,1.20
2023-01-01T11:05:26.448Z,1.25
2023-01-01T11:06:41.125Z,1.38
2023-01-01T11:07:44.155Z,1.25
2023-01-01T11:08:54.932Z,1.73
2023-01-01T11:10:03.997Z,1.30
2023-01-01T11:11:06.507Z,1.30
2023-01-01T11:12:46.172Z,1.38
2023-01-01T11:13:40.934Z,1.38
2023-01-01T11:14:54.416Z,1.20
2023-01-01T11:15:56.794Z,1.37
2023-01-01T11:16:59.486Z,1.10
2023-01-01T11:18:28.894Z,0.98
2023-01-01T11:19:39.324Z,1.25
2023-01-01T11:20:42.361Z,1.02
2023-01-01T11:21:47.684Z,1.10
2023-01-01T11:22:52.310Z,1.15
2023-01-01T11:24:18.184Z,1.15
2023-01-01T11:25:29.136Z,1.05
2023-01-01T11:26:30.901Z,1.30
2023-01-01T11:27:32.688Z,1.10
2023-01-01T11:28:35.789Z,1.10
2023-01-01T11:29:37.622Z,1.27
2023-01-01T11:30:39.876Z,1.50
2023-01-01T11:31:42.860Z,0.90
2023-01-01T11:32:47.182Z,1.10
2023-01-01T11:33:54.409Z,1.10
2023-01-01T11:35:02.685Z,1.00
2023-01-01T11:36:05.638Z,1.25
2023-01-01T11:37:14.773Z,1.50
2023-01-01T11:38:27.593Z,1.10
2023-01-01T11:39:32.867Z,1.05
2023-01-01T11:40:44.753Z,1.00
2023-01-01T11:41:51.897Z,1.13
2023-01-01T11:42:59.507Z,1.23
2023-01-01T11:44:01.286Z,1.30
2023-01-01T11:45:25.113Z,1.00
2023-01-01T11:46:27.278Z,0.95
2023-01-01T11:47:42.017Z,1.17
2023-01-01T11:48:44.373Z,1.40
2023-01-01T11:49:53.609Z,1.60
2023-01-01T11:51:02.223Z,1.00
2023-01-01T11:52:50.109Z,1.13
2023-01-01T11:53:51.857Z,1.10
2023-01-01T11:55:00.741Z,0.90
2023-01-01T11:56:02.538Z,1.48
2023-01-01T11:57:12.154Z,1.00
2023-01-01T11:58:22.394Z,1.42
2023-01-01T11:59:29.792Z,1.10
2023-01-01T12:00:37.885Z,1.02
2023-01-01T12:01:43.197Z,1.43
2023-01-01T12:02:56.269Z,1.15
2023-01-01T12:04:19.526Z,0.90
2023-01-01T12:05:25.619Z,1.13
2023-01-01T12:06:41.401Z,1.20
2023-01-01T12:07:45.106Z,1.20
2023-01-01T12:08:46.808Z,1.77
2023-01-01T12:10:15.259Z,1.48
2023-01-01T12:11:34.942Z,0.88
2023-01-01T12:12:45.335Z,1.08
2023-01-01T12:14:13.374Z,1.13
2023-01-01T12:15:35.433Z,0.93
2023-01-01T12:17:08.781Z,1.60
2023-01-01T12:18:28.857Z,1.10
2023-01-01T12:19:44.752Z,1.17
2023-01-01T12:20:53.337Z,1.13
2023-01-01T12:21:59.082Z,1.48
2023-01-01T12:23:01.511Z,1.02
2023-01-01T12:24:04.479Z,1.02
2023-01-01T12:25:09.999Z,0.90
2023-01-01T12:26:34.468Z,1.90
2023-01-01T12:27:44.636Z,1.30
2023-01-01T12:29:18.538Z,1.10
2023-01-01T12:30:23.630Z,1.27
2023-01-01T12:31:43.476Z,1.85
2023-01-01T12:32:54.397Z,1.52
2023-01-01T12:34:18.755Z,1.13
2023-01-01T12:35:51.505Z,1.30
2023-01-01T12:37:15.192Z,1.80
2023-01-01T12:38:22.924Z,1.52
2023-01-01T12:40:22.756Z,1.23
2023-01-01T12:41:53.505Z,1.40
2023-01-01T12:43:08.772Z,0.88
2023-01-01T12:44:20.262Z,1.58
2023-01-01T12:45:33.396Z,0.90
2023-01-01T12:46:57.562Z,1.30
2023-01-01T12:48:28.161Z,1.33
2023-01-01T12:49:47.976Z,1.17
2023-01-01T12:51:12.858Z,1.75
2023-01-01T12:52:32.381Z,1.33
2023-01-01T12:53:56.996Z,1.60
2023-01-01T12:55:36.392Z,1.10
2023-01-01T12:57:01.376Z,1.40
2023-01-01T12:58:27.054Z,1.42
2023-01-01T12:59:37.093Z,1.20
2023-01-01T13:00:43.302Z,1.38
2023-01-01T13:01:47.184Z,1.80
2023-01-01T13:03:08.280Z,1.40
2023-01-01T13:04:19.974Z,1.48
2023-01-01T13:05:32.591Z,1.33
2023-01-01T13:06:47.499Z,1.03
2023-01-01T13:07:53.983Z,1.95
2023-01-01T13:09:04.894Z,1.38
2023-01-01T13:10:29.921Z,1.02
2023-01-01T13:11:33.813Z,1.40
2023-01-01T13:12:37.906Z,1.27
2023-01-01T13:13:39.756Z,1.30
2023-01-01T13:14:43.591Z,1.30
2023-01-01T13:15:48.649Z,1.33
2023-01-01T13:16:55.972Z,1.20
2023-01-01T13:17:57.741Z,1.23
2023-01-01T13:19:02.861Z,1.60
2023-01-01T13:20:24.263Z,1.70
2023-01-01T13:21:28.142Z,1.63
2023-01-01T13:22:29.864Z,1.20
2023-01-01T13:23:31.581Z,1.90
2023-01-01T13:24:33.351Z,1.35
2023-01-01T13:25:36.120Z,1.23
2023-01-01T13:26:39.416Z,1.10
2023-01-01T13:27:56.544Z,1.40
2023-01-01T13:28:58.209Z,1.37
2023-01-01T13:29:59.955Z,1.33
2023-01-01T13:31:01.691Z,1.20
2023-01-01T13:32:05.327Z,1.40
2023-01-01T13:33:28.951Z,1.40
2023-01-01T13:34:30.775Z,1.40
2023-01-01T13:35:32.538Z,1.20
2023-01-01T13:36:34.297Z,1.00
2023-01-01T13:37:45.496Z,1.40
2023-01-01T13:38:50.814Z,1.45
2023-01-01T13:40:01.544Z,1.20
2023-01-01T13:41:03.307Z,1.52
2023-01-01T13:42:43.875Z,1.20
2023-01-01T13:43:45.586Z,1.38
2023-01-01T13:44:47.301Z,1.20
2023-01-01T13:46:13.380Z,1.23
2023-01-01T13:47:59.776Z,1.52
2023-01-01T13:49:38.926Z,1.45
2023-01-01T13:50:46.572Z,1.13
2023-01-01T13:52:09.951Z,1.17
2023-01-01T13:53:22.079Z,1.47
2023-01-01T13:55:11.354Z,1.10
2023-01-01T13:56:34.257Z,1.55
2023-01-01T13:57:35.958Z,1.38
2023-01-01T13:58:50.297Z,2.35
2023-01-01T14:00:16.285Z,1.40
2023-01-01T14:01:54.438Z,1.40
2023-01-01T14:03:03.135Z,1.17
2023-01-01T14:04:14.011Z,1.52
2023-01-01T14:05:37.108Z,1.40
2023-01-01T14:06:43.877Z,1.40
2023-01-01T14:07:52.618Z,1.13
2023-01-01T14:09:13.351Z,1.27
2023-01-01T14:10:31.520Z,1.63
2023-01-01T14:11:33.320Z,1.58
2023-01-01T14:12:38.707Z,1.40
2023-01-01T14:13:41.211Z,1.58
2023-01-01T14:14:43.024Z,2.88
2023-01-01T14:15:58.497Z,2.20
2023-01-01T14:17:05.803Z,1.90
2023-01-01T14:18:13.070Z,1.30
2023-01-01T14:19:16.515Z,1.52
2023-01-01T14:20:21.682Z,0.90
2023-01-01T14:21:31.288Z,1.15
2023-01-01T14:22:33.101Z,1.42
2023-01-01T14:23:46.542Z,1.27
2023-01-01T14:24:48.555Z,1.42
2023-01-01T14:25:50.619Z,1.40
2023-01-01T14:26:54.969Z,1.27
2023-01-01T14:27:58.737Z,1.75
2023-01-01T14:29:06.163Z,1.53
2023-01-01T14:30:16.288Z,1.30
2023-01-01T14:31:22.090Z,1.20
2023-01-01T14:32:25.438Z,1.20
2023-01-01T14:33:32.122Z,1.20
2023-01-01T14:34:35.787Z,1.17
2023-01-01T14:35:37.527Z,1.27
2023-01-01T14:36:48.720Z,1.10
2023-01-01T14:37:50.598Z,1.70
2023-01-01T14:38:55.365Z,1.48
2023-01-01T14:40:07.755Z,1.53
2023-01-01T14:41:29.135Z,1.50
2023-01-01T14:42:31.982Z,1.90
2023-01-01T14:43:39.593Z,1.00
2023-01-01T14:44:46.545Z,1.25
2023-01-01T14:45:49.374Z,1.13
2023-01-01T14:46:53.421Z,1.73
2023-01-01T14:47:56.757Z,1.23
2023-01-01T14:49:03.105Z,1.27
2023-01-01T14:50:10.441Z,1.50
2023-01-01T14:51:22.516Z,2.00
2023-01-01T14:52:31.232Z,1.30
2023-01-01T14:53:34.361Z,1.50
2023-01-01T14:54:39.668Z,1.50
2023-01-01T14:55:44.646Z,1.23
2023-01-01T14:56:51.779Z,1.10
2023-01-01T14:57:59.513Z,1.20
2023-01-01T14:59:09.755Z,1.92